CCGS Sir Wilfrid Laurier — CGJK — position and weather

sailwx.info

Track history (hours):
 
Tides and Currents Weather Stations Pressure Air Temp Water Temp Dewpoint Dewpoint Depression Visibility Wind Speed Wind Dir Waves Ship Positions

Oceanographic research ship CCGS Sir Wilfrid Laurier (Canada)

Detailed information on ship capabilities available from ARCUS's ALIAS (Arctic Logistics Information and Support) project.

Last reported at 2015-Jan-24 11:25 UTC. Time now 2015-Jan-30 02:32 UTC.
Position N 49°19' W 126°32'.

Length 83 m; beam 16.2 m; draft 6 m.

Type: SAR. MMSI: 316052000.

Date/timePositionNaut miles runAvg speedWind from/ knotsBaromVisibWave heightAir tempDewpointWater temp
2015-Jan-24 11:25N 49°19' W 126°32'7 5.6
2015-Jan-24 10:10N 49°15' W 126°24'3 5.8
2015-Jan-24 09:34N 49°13' W 126°19'6 5.8
2015-Jan-24 08:33N 49°10' W 126°12'6 5.8
2015-Jan-24 07:33N 49°07' W 126°05'6 6.2
2015-Jan-24 06:33N 49°03' W 125°57'6 5.8
2015-Jan-24 05:33N 48°60' W 125°49'6 5.6
2015-Jan-24 04:33N 48°56' W 125°43'6 5.7
2015-Jan-24 03:33N 48°54' W 125°35'6 5.5
2015-Jan-24 02:34N 48°50' W 125°29'5 4.8
2015-Jan-24 01:33N 48°47' W 125°23'6 5.6
2015-Jan-24 00:33N 48°44' W 125°16'6 5.8
2015-Jan-23 23:33N 48°41' W 125°08'5 4.9
2015-Jan-23 22:31N 48°39' W 125°01'5 5.4
2015-Jan-23 21:33N 48°37' W 124°54'5 5.5
2015-Jan-23 20:33N 48°34' W 124°47'9 9.2
2015-Jan-23 19:33N 48°29' W 124°36'1312.5
2015-Jan-23 18:33N 48°24' W 124°18'1312.6
2015-Jan-23 17:33N 48°19' W 124°01'1212.1
2015-Jan-23 16:33N 48°17' W 123°43'1110.9
2015-Jan-23 15:33N 48°20' W 123°27'5 4.6
2015-Jan-23 14:22N 48°25' W 123°23'0 0.0
2015-Jan-23 13:19N 48°25' W 123°23'0 0.0
2015-Jan-23 12:25N 48°25' W 123°23'0 0.0
2015-Jan-23 11:29N 48°25' W 123°23'0 0.0
2015-Jan-23 09:25N 48°25' W 123°23'0 0.0
2015-Jan-23 08:28N 48°25' W 123°23'0 0.0
2015-Jan-23 07:28N 48°25' W 123°23'0 0.0
2015-Jan-23 06:31N 48°25' W 123°23'0 0.0
2015-Jan-23 05:22N 48°25' W 123°23'0 0.0
2015-Jan-23 03:22N 48°25' W 123°23'0 0.0
2015-Jan-23 02:28N 48°25' W 123°23'0 0.0
2015-Jan-23 01:31N 48°25' W 123°23'0 0.0
2015-Jan-23 00:31N 48°25' W 123°23'0 0.0
2015-Jan-22 23:19N 48°25' W 123°23'0 0.0
2015-Jan-22 22:25N 48°25' W 123°23'0 0.0
2015-Jan-22 21:31N 48°25' W 123°23'0 0.0
2015-Jan-22 20:25N 48°25' W 123°23'0 0.0
2015-Jan-22 19:29N 48°25' W 123°23'0 0.0
2015-Jan-22 16:31N 48°25' W 123°23'0 0.0
2015-Jan-22 15:29N 48°25' W 123°23'0 0.0
2015-Jan-22 14:28N 48°25' W 123°23'0 0.0
2015-Jan-22 13:28N 48°25' W 123°23'0 0.0
2015-Jan-22 12:10N 48°25' W 123°23'0 0.0
2015-Jan-22 11:28N 48°25' W 123°23'0 0.0
2015-Jan-22 10:28N 48°25' W 123°23'0 0.0
2015-Jan-22 09:10N 48°25' W 123°23'0 0.0
2015-Jan-22 08:32N 48°25' W 123°23'0 0.0
2015-Jan-22 07:28N 48°25' W 123°23'0 0.0
2015-Jan-22 05:28N 48°25' W 123°23'0 0.0
2015-Jan-22 03:25N 48°25' W 123°23'0 0.0
2015-Jan-22 02:28N 48°25' W 123°23'0 0.0
2015-Jan-22 01:28N 48°25' W 123°23'0 0.0
2015-Jan-22 00:31N 48°25' W 123°23'1 1.0
2015-Jan-21 23:33N 48°24' W 123°24'810.9
2015-Jan-21 22:50N 48°18' W 123°30'110.3
2015-Jan-21 22:46N 48°17' W 123°31'0 0.8
2015-Jan-21 22:33N 48°17' W 123°31'1 0.6
2015-Jan-21 21:33N 48°18' W 123°31'8 8.0
2015-Jan-21 20:33N 48°24' W 123°23'8 8.4
2015-Jan-21 19:33N 48°29' W 123°13'1110.6
2015-Jan-21 18:33N 48°39' W 123°18'4 4.0
2015-Jan-21 17:33N 48°37' W 123°13'1010.3
2015-Jan-21 16:33N 48°26' W 123°10'8 8.4
2015-Jan-21 15:33N 48°22' W 123°21'4 3.5
2015-Jan-21 14:33N 48°25' W 123°23'0 0.0
2015-Jan-21 13:27N 48°25' W 123°23'0 0.0
2015-Jan-21 12:21N 48°25' W 123°23'0 0.0
2015-Jan-21 11:24N 48°25' W 123°23'0 0.0
2015-Jan-21 09:33N 48°25' W 123°23'0 0.0
2015-Jan-21 08:33N 48°25' W 123°23'0 0.0
2015-Jan-21 07:33N 48°25' W 123°23'0 0.0
2015-Jan-21 06:33N 48°25' W 123°23'0 0.0
2015-Jan-21 05:21N 48°25' W 123°23'0 0.0
2015-Jan-21 04:27N 48°25' W 123°23'0 0.0
2015-Jan-21 03:27N 48°25' W 123°23'0 0.0
2015-Jan-21 02:33N 48°25' W 123°23'0 0.0
2015-Jan-21 01:33N 48°25' W 123°23'0 0.0
2015-Jan-21 00:27N 48°25' W 123°23'0 0.0
2015-Jan-20 23:33N 48°25' W 123°23'0 0.0
2015-Jan-20 22:28N 48°25' W 123°23'0 0.0
2015-Jan-20 21:13N 48°25' W 123°23'0 0.0
2015-Jan-20 20:03N 48°25' W 123°23'0 0.0
2015-Jan-20 19:15N 48°25' W 123°23'0 0.0
2015-Jan-20 17:09N 48°25' W 123°23'0 0.0
2015-Jan-20 16:12N 48°25' W 123°23'0 0.0
2015-Jan-20 15:25N 48°25' W 123°23'0 0.0
2015-Jan-20 14:28N 48°25' W 123°23'0 0.0
2015-Jan-20 13:12N 48°25' W 123°23'0 0.0
2015-Jan-20 12:27N 48°25' W 123°23'0 0.0
2015-Jan-20 11:27N 48°25' W 123°23'0 0.0
2015-Jan-20 10:30N 48°25' W 123°23'0 0.0
2015-Jan-20 09:22N 48°25' W 123°23'0 0.0
2015-Jan-20 08:27N 48°25' W 123°23'0 0.0
2015-Jan-20 06:25N 48°25' W 123°23'0 0.0
2015-Jan-20 03:25N 48°25' W 123°23'0 0.0
2015-Jan-20 01:15N 48°25' W 123°23'0 0.0
2015-Jan-20 00:32N 48°25' W 123°23'7 6.8
2015-Jan-19 23:33N 48°25' W 123°13'1312.9
2015-Jan-19 22:33N 48°38' W 123°15'1212.2
2015-Jan-19 21:33N 48°49' W 123°23'2 2.2
2015-Jan-19 20:33N 48°51' W 123°22'8 8.2
2015-Jan-19 19:33N 48°59' W 123°21'6 5.8
2015-Jan-19 18:33N 49°04' W 123°23'0 0.1
2015-Jan-19 17:33N 49°04' W 123°23'1 1.4
2015-Jan-19 16:33N 49°05' W 123°25'10 9.8
2015-Jan-19 15:33N 49°10' W 123°38'5 4.3
2015-Jan-19 14:27N 49°10' W 123°45'0 0.0
2015-Jan-19 13:33N 49°10' W 123°45'0 0.0
2015-Jan-19 12:30N 49°10' W 123°45'0 0.0
2015-Jan-19 11:30N 49°10' W 123°45'0 0.0
2015-Jan-19 10:30N 49°10' W 123°45'0 0.0
2015-Jan-19 09:33N 49°10' W 123°45'0 0.0
2015-Jan-19 08:33N 49°10' W 123°45'0 0.0
2015-Jan-19 07:30N 49°10' W 123°45'0 0.0
2015-Jan-19 06:33N 49°10' W 123°45'0 0.0
2015-Jan-19 05:33N 49°10' W 123°45'0 0.0
2015-Jan-19 04:33N 49°10' W 123°45'0 0.0
2015-Jan-19 03:33N 49°10' W 123°45'0 0.0
2015-Jan-19 02:30N 49°10' W 123°45'0 0.0
2015-Jan-19 01:33N 49°10' W 123°45'5 4.6
2015-Jan-19 00:34N 49°13' W 123°51'3 3.4
2015-Jan-18 23:33N 49°13' W 123°56'3 3.3
2015-Jan-18 22:33N 49°14' W 123°51'6 5.5
2015-Jan-18 21:33N 49°14' W 123°43'7 6.9
2015-Jan-18 20:33N 49°15' W 123°32'6 5.9
2015-Jan-18 19:33N 49°16' W 123°23'3 3.0
2015-Jan-18 18:33N 49°17' W 123°19'0 0.2
2015-Jan-18 17:33N 49°17' W 123°19'0 0.1
2015-Jan-18 16:33N 49°17' W 123°19'2 2.2
2015-Jan-18 15:33N 49°16' W 123°23'2 1.6
2015-Jan-18 14:34N 49°15' W 123°25'2 1.6
2015-Jan-18 13:33N 49°14' W 123°24'1 1.0
2015-Jan-18 12:33N 49°15' W 123°24'1 0.7
2015-Jan-18 11:33N 49°16' W 123°25'2 1.8
2015-Jan-18 10:33N 49°15' W 123°22'8 8.5
2015-Jan-18 09:33N 49°07' W 123°21'1211.6
2015-Jan-18 08:33N 48°57' W 123°10'1110.8
2015-Jan-18 07:33N 48°49' W 122°60'1111.1
2015-Jan-18 06:33N 48°43' W 123°13'9 9.0
2015-Jan-18 05:33N 48°34' W 123°12'8 7.7
2015-Jan-18 04:33N 48°26' W 123°10'9 8.9
2015-Jan-18 03:33N 48°23' W 123°23'2 0.9
2015-Jan-18 01:21N 48°25' W 123°23'0 0.0
2015-Jan-17 22:18N 48°25' W 123°23'0 0.0
2015-Jan-17 19:21N 48°25' W 123°23'0 0.0
2015-Jan-17 18:30N 48°25' W 123°23'0 0.0
2015-Jan-17 17:12N 48°25' W 123°23'0 0.0
2015-Jan-17 16:27N 48°25' W 123°23'0 0.0
2015-Jan-17 15:33N 48°25' W 123°23'0 0.0
2015-Jan-17 14:30N 48°25' W 123°23'0 0.0
2015-Jan-17 13:24N 48°25' W 123°23'0 0.0
2015-Jan-17 09:24N 48°25' W 123°23'0 0.0
2015-Jan-17 08:24N 48°25' W 123°23'0 0.0
2015-Jan-17 05:33N 48°25' W 123°23'0 0.0
2015-Jan-17 04:03N 48°25' W 123°23'0 0.0
2015-Jan-17 03:06N 48°25' W 123°23'0 0.0
2015-Jan-17 01:10N 48°25' W 123°23'0 0.0
2015-Jan-16 23:15N 48°25' W 123°23'0 0.0
2015-Jan-16 22:18N 48°25' W 123°23'0 0.0
2015-Jan-16 19:12N 48°25' W 123°23'0 0.0
2015-Jan-16 16:19N 48°25' W 123°23'3 3.4
2015-Jan-16 15:33N 48°23' W 123°21'7 6.7
2015-Jan-16 14:33N 48°26' W 123°12'8 8.4
2015-Jan-16 13:33N 48°34' W 123°14'3 3.3
2015-Jan-16 12:33N 48°37' W 123°14'1212.3
2015-Jan-16 11:33N 48°25' W 123°12'3 2.7
2015-Jan-16 10:33N 48°28' W 123°12'1010.0
2015-Jan-16 09:33N 48°38' W 123°15'8 8.1
2015-Jan-16 08:33N 48°45' W 123°08'7 6.7
2015-Jan-16 07:33N 48°50' W 123°03'1010.1
2015-Jan-16 06:33N 48°57' W 123°14'1010.4
2015-Jan-16 05:33N 49°04' W 123°26'1010.2
2015-Jan-16 04:33N 49°11' W 123°38'1010.4
2015-Jan-16 03:33N 49°16' W 123°52'1010.3
2015-Jan-16 02:33N 49°21' W 124°06'1010.3
2015-Jan-16 01:33N 49°26' W 124°20'10 9.8
2015-Jan-16 00:33N 49°32' W 124°31'1010.1
2015-Jan-15 23:33N 49°39' W 124°42'10 9.5
2015-Jan-15 22:31N 49°47' W 124°52'8 8.1
2015-Jan-15 21:32N 49°53' W 124°59'7610.3
2015-Jan-15 14:10N 50°32' W 126°41'6 8.8
2015-Jan-15 13:32N 50°37' W 126°46'8 7.8
2015-Jan-15 12:31N 50°42' W 126°55'8 8.2
2015-Jan-15 11:32N 50°45' W 127°07'9 8.3
2015-Jan-15 10:26N 50°48' W 127°21'7 7.9
2015-Jan-15 09:33N 50°51' W 127°31'8 8.1
2015-Jan-15 08:33N 50°56' W 127°41'9 8.5
2015-Jan-15 07:27N 51°04' W 127°48'11 8.8
2015-Jan-15 06:13N 51°14' W 127°53'  
Track history (hours):
 
Tides and Currents Weather Stations Pressure Air Temp Water Temp Dewpoint Dewpoint Depression Visibility Wind Speed Wind Dir Waves Ship Positions

Oceanographic research ship CCGS Sir Wilfrid Laurier (Canada)

Detailed information on ship capabilities available from ARCUS's ALIAS (Arctic Logistics Information and Support) project.

Last reported at 2015-Jan-24 11:25 UTC. Time now 2015-Jan-30 02:32 UTC.
Position N 49°19' W 126°32'.

Length 83 m; beam 16.2 m; draft 6 m.

Type: SAR. MMSI: 316052000.

Date/timePositionNaut miles runAvg speedWind from/ knotsBaromVisibWave heightAir tempDewpointWater temp
2015-Jan-24 11:25N 49°19' W 126°32'7 5.6
2015-Jan-24 10:10N 49°15' W 126°24'3 5.8
2015-Jan-24 09:34N 49°13' W 126°19'6 5.8
2015-Jan-24 08:33N 49°10' W 126°12'6 5.8
2015-Jan-24 07:33N 49°07' W 126°05'6 6.2
2015-Jan-24 06:33N 49°03' W 125°57'6 5.8
2015-Jan-24 05:33N 48°60' W 125°49'6 5.6
2015-Jan-24 04:33N 48°56' W 125°43'6 5.7
2015-Jan-24 03:33N 48°54' W 125°35'6 5.5
2015-Jan-24 02:34N 48°50' W 125°29'5 4.8
2015-Jan-24 01:33N 48°47' W 125°23'6 5.6
2015-Jan-24 00:33N 48°44' W 125°16'6 5.8
2015-Jan-23 23:33N 48°41' W 125°08'5 4.9
2015-Jan-23 22:31N 48°39' W 125°01'5 5.4
2015-Jan-23 21:33N 48°37' W 124°54'5 5.5
2015-Jan-23 20:33N 48°34' W 124°47'9 9.2
2015-Jan-23 19:33N 48°29' W 124°36'1312.5
2015-Jan-23 18:33N 48°24' W 124°18'1312.6
2015-Jan-23 17:33N 48°19' W 124°01'1212.1
2015-Jan-23 16:33N 48°17' W 123°43'1110.9
2015-Jan-23 15:33N 48°20' W 123°27'5 4.6
2015-Jan-23 14:22N 48°25' W 123°23'0 0.0
2015-Jan-23 13:19N 48°25' W 123°23'0 0.0
2015-Jan-23 12:25N 48°25' W 123°23'0 0.0
2015-Jan-23 11:29N 48°25' W 123°23'0 0.0
2015-Jan-23 09:25N 48°25' W 123°23'0 0.0
2015-Jan-23 08:28N 48°25' W 123°23'0 0.0
2015-Jan-23 07:28N 48°25' W 123°23'0 0.0
2015-Jan-23 06:31N 48°25' W 123°23'0 0.0
2015-Jan-23 05:22N 48°25' W 123°23'0 0.0
2015-Jan-23 03:22N 48°25' W 123°23'0 0.0
2015-Jan-23 02:28N 48°25' W 123°23'0 0.0
2015-Jan-23 01:31N 48°25' W 123°23'0 0.0
2015-Jan-23 00:31N 48°25' W 123°23'0 0.0
2015-Jan-22 23:19N 48°25' W 123°23'0 0.0
2015-Jan-22 22:25N 48°25' W 123°23'0 0.0
2015-Jan-22 21:31N 48°25' W 123°23'0 0.0
2015-Jan-22 20:25N 48°25' W 123°23'0 0.0
2015-Jan-22 19:29N 48°25' W 123°23'0 0.0
2015-Jan-22 16:31N 48°25' W 123°23'0 0.0
2015-Jan-22 15:29N 48°25' W 123°23'0 0.0
2015-Jan-22 14:28N 48°25' W 123°23'0 0.0
2015-Jan-22 13:28N 48°25' W 123°23'0 0.0
2015-Jan-22 12:10N 48°25' W 123°23'0 0.0
2015-Jan-22 11:28N 48°25' W 123°23'0 0.0
2015-Jan-22 10:28N 48°25' W 123°23'0 0.0
2015-Jan-22 09:10N 48°25' W 123°23'0 0.0
2015-Jan-22 08:32N 48°25' W 123°23'0 0.0
2015-Jan-22 07:28N 48°25' W 123°23'0 0.0
2015-Jan-22 05:28N 48°25' W 123°23'0 0.0
2015-Jan-22 03:25N 48°25' W 123°23'0 0.0
2015-Jan-22 02:28N 48°25' W 123°23'0 0.0
2015-Jan-22 01:28N 48°25' W 123°23'0 0.0
2015-Jan-22 00:31N 48°25' W 123°23'1 1.0
2015-Jan-21 23:33N 48°24' W 123°24'810.9
2015-Jan-21 22:50N 48°18' W 123°30'110.3
2015-Jan-21 22:46N 48°17' W 123°31'0 0.8
2015-Jan-21 22:33N 48°17' W 123°31'1 0.6
2015-Jan-21 21:33N 48°18' W 123°31'8 8.0
2015-Jan-21 20:33N 48°24' W 123°23'8 8.4
2015-Jan-21 19:33N 48°29' W 123°13'1110.6
2015-Jan-21 18:33N 48°39' W 123°18'4 4.0
2015-Jan-21 17:33N 48°37' W 123°13'1010.3
2015-Jan-21 16:33N 48°26' W 123°10'8 8.4
2015-Jan-21 15:33N 48°22' W 123°21'4 3.5
2015-Jan-21 14:33N 48°25' W 123°23'0 0.0
2015-Jan-21 13:27N 48°25' W 123°23'0 0.0
2015-Jan-21 12:21N 48°25' W 123°23'0 0.0
2015-Jan-21 11:24N 48°25' W 123°23'0 0.0
2015-Jan-21 09:33N 48°25' W 123°23'0 0.0
2015-Jan-21 08:33N 48°25' W 123°23'0 0.0
2015-Jan-21 07:33N 48°25' W 123°23'0 0.0
2015-Jan-21 06:33N 48°25' W 123°23'0 0.0
2015-Jan-21 05:21N 48°25' W 123°23'0 0.0
2015-Jan-21 04:27N 48°25' W 123°23'0 0.0
2015-Jan-21 03:27N 48°25' W 123°23'0 0.0
2015-Jan-21 02:33N 48°25' W 123°23'0 0.0
2015-Jan-21 01:33N 48°25' W 123°23'0 0.0
2015-Jan-21 00:27N 48°25' W 123°23'0 0.0
2015-Jan-20 23:33N 48°25' W 123°23'0 0.0
2015-Jan-20 22:28N 48°25' W 123°23'0 0.0
2015-Jan-20 21:13N 48°25' W 123°23'0 0.0
2015-Jan-20 20:03N 48°25' W 123°23'0 0.0
2015-Jan-20 19:15N 48°25' W 123°23'0 0.0
2015-Jan-20 17:09N 48°25' W 123°23'0 0.0
2015-Jan-20 16:12N 48°25' W 123°23'0 0.0
2015-Jan-20 15:25N 48°25' W 123°23'0 0.0
2015-Jan-20 14:28N 48°25' W 123°23'0 0.0
2015-Jan-20 13:12N 48°25' W 123°23'0 0.0
2015-Jan-20 12:27N 48°25' W 123°23'0 0.0
2015-Jan-20 11:27N 48°25' W 123°23'0 0.0
2015-Jan-20 10:30N 48°25' W 123°23'0 0.0
2015-Jan-20 09:22N 48°25' W 123°23'0 0.0
2015-Jan-20 08:27N 48°25' W 123°23'0 0.0
2015-Jan-20 06:25N 48°25' W 123°23'0 0.0
2015-Jan-20 03:25N 48°25' W 123°23'0 0.0
2015-Jan-20 01:15N 48°25' W 123°23'0 0.0
2015-Jan-20 00:32N 48°25' W 123°23'7 6.8
2015-Jan-19 23:33N 48°25' W 123°13'1312.9
2015-Jan-19 22:33N 48°38' W 123°15'1212.2
2015-Jan-19 21:33N 48°49' W 123°23'2 2.2
2015-Jan-19 20:33N 48°51' W 123°22'8 8.2
2015-Jan-19 19:33N 48°59' W 123°21'6 5.8
2015-Jan-19 18:33N 49°04' W 123°23'0 0.1
2015-Jan-19 17:33N 49°04' W 123°23'1 1.4
2015-Jan-19 16:33N 49°05' W 123°25'10 9.8
2015-Jan-19 15:33N 49°10' W 123°38'5 4.3
2015-Jan-19 14:27N 49°10' W 123°45'0 0.0
2015-Jan-19 13:33N 49°10' W 123°45'0 0.0
2015-Jan-19 12:30N 49°10' W 123°45'0 0.0
2015-Jan-19 11:30N 49°10' W 123°45'0 0.0
2015-Jan-19 10:30N 49°10' W 123°45'0 0.0
2015-Jan-19 09:33N 49°10' W 123°45'0 0.0
2015-Jan-19 08:33N 49°10' W 123°45'0 0.0
2015-Jan-19 07:30N 49°10' W 123°45'0 0.0
2015-Jan-19 06:33N 49°10' W 123°45'0 0.0
2015-Jan-19 05:33N 49°10' W 123°45'0 0.0
2015-Jan-19 04:33N 49°10' W 123°45'0 0.0
2015-Jan-19 03:33N 49°10' W 123°45'0 0.0
2015-Jan-19 02:30N 49°10' W 123°45'0 0.0
2015-Jan-19 01:33N 49°10' W 123°45'5 4.6
2015-Jan-19 00:34N 49°13' W 123°51'3 3.4
2015-Jan-18 23:33N 49°13' W 123°56'3 3.3
2015-Jan-18 22:33N 49°14' W 123°51'6 5.5
2015-Jan-18 21:33N 49°14' W 123°43'7 6.9
2015-Jan-18 20:33N 49°15' W 123°32'6 5.9
2015-Jan-18 19:33N 49°16' W 123°23'3 3.0
2015-Jan-18 18:33N 49°17' W 123°19'0 0.2
2015-Jan-18 17:33N 49°17' W 123°19'0 0.1
2015-Jan-18 16:33N 49°17' W 123°19'2 2.2
2015-Jan-18 15:33N 49°16' W 123°23'2 1.6
2015-Jan-18 14:34N 49°15' W 123°25'2 1.6
2015-Jan-18 13:33N 49°14' W 123°24'1 1.0
2015-Jan-18 12:33N 49°15' W 123°24'1 0.7
2015-Jan-18 11:33N 49°16' W 123°25'2 1.8
2015-Jan-18 10:33N 49°15' W 123°22'8 8.5
2015-Jan-18 09:33N 49°07' W 123°21'1211.6
2015-Jan-18 08:33N 48°57' W 123°10'1110.8
2015-Jan-18 07:33N 48°49' W 122°60'1111.1
2015-Jan-18 06:33N 48°43' W 123°13'9 9.0
2015-Jan-18 05:33N 48°34' W 123°12'8 7.7
2015-Jan-18 04:33N 48°26' W 123°10'9 8.9
2015-Jan-18 03:33N 48°23' W 123°23'2 0.9
2015-Jan-18 01:21N 48°25' W 123°23'0 0.0
2015-Jan-17 22:18N 48°25' W 123°23'0 0.0
2015-Jan-17 19:21N 48°25' W 123°23'0 0.0
2015-Jan-17 18:30N 48°25' W 123°23'0 0.0
2015-Jan-17 17:12N 48°25' W 123°23'0 0.0
2015-Jan-17 16:27N 48°25' W 123°23'0 0.0
2015-Jan-17 15:33N 48°25' W 123°23'0 0.0
2015-Jan-17 14:30N 48°25' W 123°23'0 0.0
2015-Jan-17 13:24N 48°25' W 123°23'0 0.0
2015-Jan-17 09:24N 48°25' W 123°23'0 0.0
2015-Jan-17 08:24N 48°25' W 123°23'0 0.0
2015-Jan-17 05:33N 48°25' W 123°23'0 0.0
2015-Jan-17 04:03N 48°25' W 123°23'0 0.0
2015-Jan-17 03:06N 48°25' W 123°23'0 0.0
2015-Jan-17 01:10N 48°25' W 123°23'0 0.0
2015-Jan-16 23:15N 48°25' W 123°23'0 0.0
2015-Jan-16 22:18N 48°25' W 123°23'0 0.0
2015-Jan-16 19:12N 48°25' W 123°23'0 0.0
2015-Jan-16 16:19N 48°25' W 123°23'3 3.4
2015-Jan-16 15:33N 48°23' W 123°21'7 6.7
2015-Jan-16 14:33N 48°26' W 123°12'8 8.4
2015-Jan-16 13:33N 48°34' W 123°14'3 3.3
2015-Jan-16 12:33N 48°37' W 123°14'1212.3
2015-Jan-16 11:33N 48°25' W 123°12'3 2.7
2015-Jan-16 10:33N 48°28' W 123°12'1010.0
2015-Jan-16 09:33N 48°38' W 123°15'8 8.1
2015-Jan-16 08:33N 48°45' W 123°08'7 6.7
2015-Jan-16 07:33N 48°50' W 123°03'1010.1
2015-Jan-16 06:33N 48°57' W 123°14'1010.4
2015-Jan-16 05:33N 49°04' W 123°26'1010.2
2015-Jan-16 04:33N 49°11' W 123°38'1010.4
2015-Jan-16 03:33N 49°16' W 123°52'1010.3
2015-Jan-16 02:33N 49°21' W 124°06'1010.3
2015-Jan-16 01:33N 49°26' W 124°20'10 9.8
2015-Jan-16 00:33N 49°32' W 124°31'1010.1
2015-Jan-15 23:33N 49°39' W 124°42'10 9.5
2015-Jan-15 22:31N 49°47' W 124°52'8 8.1
2015-Jan-15 21:32N 49°53' W 124°59'7610.3
2015-Jan-15 14:10N 50°32' W 126°41'6 8.8
2015-Jan-15 13:32N 50°37' W 126°46'8 7.8
2015-Jan-15 12:31N 50°42' W 126°55'8 8.2
2015-Jan-15 11:32N 50°45' W 127°07'9 8.3
2015-Jan-15 10:26N 50°48' W 127°21'7 7.9
2015-Jan-15 09:33N 50°51' W 127°31'8 8.1
2015-Jan-15 08:33N 50°56' W 127°41'9 8.5
2015-Jan-15 07:27N 51°04' W 127°48'11 8.8
2015-Jan-15 06:13N 51°14' W 127°53'  

Dump ship's entire track history